createdAt,value
2023-04-19T00:00:43.705Z,100168.94
2023-04-19T00:02:49.589Z,100170.66
2023-04-19T00:04:53.529Z,100172.03
2023-04-19T00:06:57.042Z,100166.06
2023-04-19T00:08:59.757Z,100172.59
2023-04-19T00:11:03.740Z,100172.59
2023-04-19T00:13:06.493Z,100172.03
2023-04-19T00:15:09.332Z,100177.28
2023-04-19T00:17:12.376Z,100181.16
2023-04-19T00:19:15.000Z,100187.75
2023-04-19T00:21:17.744Z,100183.06
2023-04-19T00:23:20.672Z,100178.09
2023-04-19T00:25:23.242Z,100180.53
2023-04-19T00:27:25.942Z,100183.81
2023-04-19T00:29:28.618Z,100178.84
2023-04-19T00:31:31.377Z,100178.84
2023-04-19T00:33:34.148Z,100172.50
2023-04-19T00:35:36.781Z,100178.00
2023-04-19T00:37:39.420Z,100183.19
2023-04-19T00:39:42.078Z,100164.50
2023-04-19T00:41:44.673Z,100165.41
2023-04-19T00:43:47.328Z,100161.22
2023-04-19T00:45:50.175Z,100164.59
2023-04-19T00:47:54.078Z,100169.47
2023-04-19T00:49:57.032Z,100172.22
2023-04-19T00:51:59.696Z,100169.47
2023-04-19T00:54:05.710Z,100163.97
2023-04-19T00:56:09.719Z,100168.44
2023-04-19T00:58:12.373Z,100164.97
2023-04-19T01:00:15.302Z,100165.50
2023-04-19T01:02:18.522Z,100165.28
2023-04-19T01:04:23.230Z,100162.00
2023-04-19T01:06:28.002Z,100156.22
2023-04-19T01:08:30.966Z,100161.09
2023-04-19T01:10:33.597Z,100152.06
2023-04-19T01:12:36.334Z,100157.25
2023-04-19T01:14:40.571Z,100156.94
2023-04-19T01:16:43.427Z,100146.56
2023-04-19T01:18:46.066Z,100158.34
2023-04-19T01:20:48.711Z,100161.72
2023-04-19T01:22:51.402Z,100162.31
2023-04-19T01:24:54.282Z,100157.66
2023-04-19T01:26:56.817Z,100155.19
2023-04-19T01:28:59.430Z,100167.50
2023-04-19T01:31:02.114Z,100164.56
2023-04-19T01:33:04.784Z,100162.09
2023-04-19T01:35:07.728Z,100165.97
2023-04-19T01:37:10.387Z,100161.28
2023-04-19T01:39:13.050Z,100159.69
2023-04-19T01:41:16.045Z,100161.91
2023-04-19T01:43:19.153Z,100156.72
2023-04-19T01:45:21.882Z,100156.41
2023-04-19T01:47:25.209Z,100158.03
2023-04-19T01:49:27.836Z,100158.56
2023-04-19T01:51:30.722Z,100154.47
2023-04-19T01:53:33.375Z,100154.47
2023-04-19T01:55:35.939Z,100151.75
2023-04-19T01:57:38.516Z,100157.22
2023-04-19T01:59:41.137Z,100155.91
2023-04-19T02:01:43.909Z,100157.84
2023-04-19T02:03:46.841Z,100147.44
2023-04-19T02:05:49.729Z,100149.59
2023-04-19T02:07:52.278Z,100149.59
2023-04-19T02:09:55.625Z,100152.03
2023-04-19T02:11:58.501Z,100149.59
2023-04-19T02:14:01.202Z,100146.44
2023-04-19T02:16:06.152Z,100152.78
2023-04-19T02:18:08.732Z,100144.53
2023-04-19T02:20:11.512Z,100152.97
2023-04-19T02:22:14.204Z,100148.00
2023-04-19T02:24:17.250Z,100151.53
2023-04-19T02:26:20.686Z,100152.88
2023-04-19T02:28:23.411Z,100147.69
2023-04-19T02:30:26.139Z,100149.03
2023-04-19T02:32:28.818Z,100150.84
2023-04-19T02:34:31.533Z,100148.13
2023-04-19T02:36:34.127Z,100145.66
2023-04-19T02:38:36.739Z,100148.91
2023-04-19T02:40:39.415Z,100156.88
2023-04-19T02:42:41.982Z,100158.19
2023-04-19T02:44:44.579Z,100151.38
2023-04-19T02:46:50.851Z,100151.56
2023-04-19T02:48:53.495Z,100154.81
2023-04-19T02:50:56.111Z,100153.81
2023-04-19T02:52:58.945Z,100151.56
2023-04-19T02:55:01.570Z,100157.78
2023-04-19T02:57:05.798Z,100151.78
2023-04-19T02:59:08.396Z,100162.97
2023-04-19T03:01:11.258Z,100160.13
2023-04-19T03:03:13.990Z,100158.50
2023-04-19T03:05:16.664Z,100164.22
2023-04-19T03:07:19.371Z,100163.63
2023-04-19T03:09:21.922Z,100162.19
2023-04-19T03:11:25.138Z,100157.00
2023-04-19T03:13:27.824Z,100161.41
2023-04-19T03:15:30.427Z,100167.88
2023-04-19T03:17:33.130Z,100157.22
2023-04-19T03:19:35.797Z,100155.56
2023-04-19T03:21:38.374Z,100153.16
2023-04-19T03:23:41.027Z,100158.66
2023-04-19T03:25:43.644Z,100150.88
2023-04-19T03:27:48.177Z,100158.84
2023-04-19T03:29:50.865Z,100158.31
2023-04-19T03:31:53.551Z,100155.78
2023-04-19T03:33:56.125Z,100148.97
2023-04-19T03:35:58.905Z,100166.69
2023-04-19T03:38:01.503Z,100151.81
2023-04-19T03:40:04.618Z,100156.72
2023-04-19T03:42:08.004Z,100157.22
2023-04-19T03:44:10.561Z,100159.53
2023-04-19T03:46:13.353Z,100160.56
2023-04-19T03:48:16.011Z,100161.47
2023-04-19T03:50:18.727Z,100153.94
2023-04-19T03:52:21.462Z,100168.28
2023-04-19T03:54:24.160Z,100166.94
2023-04-19T03:56:26.787Z,100166.41
2023-04-19T03:58:29.354Z,100159.09
2023-04-19T04:00:32.131Z,100154.81
2023-04-19T04:02:38.453Z,100155.88
2023-04-19T04:04:41.482Z,100161.00
2023-04-19T04:06:44.476Z,100158.19
2023-04-19T04:08:47.038Z,100163.16
2023-04-19T04:10:49.660Z,100163.06
2023-04-19T04:12:52.365Z,100160.69
2023-04-19T04:14:55.011Z,100164.78
2023-04-19T04:16:57.594Z,100176.84
2023-04-19T04:19:00.341Z,100177.03
2023-04-19T04:21:02.967Z,100184.41
2023-04-19T04:23:05.483Z,100182.78
2023-04-19T04:25:08.449Z,100186.25
2023-04-19T04:27:11.441Z,100188.34
2023-04-19T04:29:14.431Z,100185.13
2023-04-19T04:31:18.429Z,100181.91
2023-04-19T04:33:21.105Z,100187.59
2023-04-19T04:35:23.890Z,100183.88
2023-04-19T04:37:26.454Z,100186.47
2023-04-19T04:39:29.879Z,100185.00
2023-04-19T04:41:32.572Z,100184.53
2023-04-19T04:43:35.208Z,100182.25
2023-04-19T04:45:38.033Z,100183.56
2023-04-19T04:47:40.942Z,100190.53
2023-04-19T04:49:43.642Z,100184.19
2023-04-19T04:51:46.281Z,100181.78
2023-04-19T04:53:48.842Z,100178.03
2023-04-19T04:55:52.979Z,100183.88
2023-04-19T04:57:55.639Z,100184.06
2023-04-19T04:59:58.281Z,100178.38
2023-04-19T05:02:00.912Z,100178.84
2023-04-19T05:04:03.654Z,100179.81
2023-04-19T05:06:06.750Z,100179.47
2023-04-19T05:08:09.268Z,100179.16
2023-04-19T05:10:11.825Z,100171.22
2023-04-19T05:12:14.663Z,100176.88
2023-04-19T05:14:17.487Z,100183.06
2023-04-19T05:16:21.278Z,100187.91
2023-04-19T05:18:24.411Z,100172.69
2023-04-19T05:20:27.038Z,100174.28
2023-04-19T05:22:29.639Z,100181.28
2023-04-19T05:24:32.184Z,100186.94
2023-04-19T05:26:34.848Z,100175.09
2023-04-19T05:28:37.372Z,100179.53
2023-04-19T05:30:40.183Z,100185.06
2023-04-19T05:32:42.846Z,100179.38
2023-04-19T05:34:45.399Z,100188.47
2023-04-19T05:36:47.954Z,100180.50
2023-04-19T05:38:50.716Z,100179.34
2023-04-19T05:40:53.283Z,100183.88
2023-04-19T05:42:55.919Z,100181.13
2023-04-19T05:44:58.474Z,100185.84
2023-04-19T05:47:01.400Z,100194.59
2023-04-19T05:49:03.968Z,100194.59
2023-04-19T05:51:06.923Z,100189.56
2023-04-19T05:53:09.602Z,100189.22
2023-04-19T05:55:12.226Z,100192.31
2023-04-19T05:57:14.933Z,100195.38
2023-04-19T05:59:17.565Z,100191.63
2023-04-19T06:01:20.266Z,100201.81
2023-04-19T06:03:23.063Z,100197.59
2023-04-19T06:05:26.023Z,100198.75
2023-04-19T06:07:32.873Z,100202.47
2023-04-19T06:09:38.370Z,100207.16
2023-04-19T06:11:50.120Z,100202.13
2023-04-19T06:13:53.762Z,100199.72
2023-04-19T06:15:56.711Z,100210.72
2023-04-19T06:18:00.098Z,100207.47
2023-04-19T06:20:06.462Z,100207.63
2023-04-19T06:22:09.573Z,100204.06
2023-04-19T06:24:12.359Z,100215.25
2023-04-19T06:26:14.967Z,100210.53
2023-04-19T06:28:17.674Z,100219.94
2023-04-19T06:30:20.514Z,100218.09
2023-04-19T06:32:23.369Z,100219.97
2023-04-19T06:34:26.362Z,100214.72
2023-04-19T06:36:29.594Z,100216.69
2023-04-19T06:38:32.845Z,100217.47
2023-04-19T06:40:35.650Z,100224.47
2023-04-19T06:42:38.485Z,100225.38
2023-04-19T06:44:41.209Z,100223.38
2023-04-19T06:46:44.229Z,100224.13
2023-04-19T06:48:47.616Z,100212.53
2023-04-19T06:50:50.865Z,100213.97
2023-04-19T06:52:53.846Z,100206.88
2023-04-19T06:54:56.658Z,100207.75
2023-04-19T06:56:59.254Z,100211.75
2023-04-19T06:59:01.935Z,100206.69
2023-04-19T07:01:05.396Z,100205.41
2023-04-19T07:03:08.156Z,100203.94
2023-04-19T07:05:12.980Z,100206.72
2023-04-19T07:07:15.811Z,100207.56
2023-04-19T07:09:18.683Z,100207.00
2023-04-19T07:11:22.521Z,100207.28
2023-04-19T07:13:25.677Z,100204.03
2023-04-19T07:15:28.858Z,100206.94
2023-04-19T07:17:32.245Z,100209.34
2023-04-19T07:19:36.518Z,100214.72
2023-04-19T07:21:40.256Z,100206.50
2023-04-19T07:23:43.450Z,100213.53
2023-04-19T07:25:47.088Z,100210.78
2023-04-19T07:27:50.301Z,100205.22
2023-04-19T07:29:54.429Z,100206.75
2023-04-19T07:31:57.141Z,100208.41
2023-04-19T07:34:00.064Z,100207.94
2023-04-19T07:36:02.861Z,100206.78
2023-04-19T07:38:05.499Z,100211.56
2023-04-19T07:40:09.144Z,100200.25
2023-04-19T07:42:12.071Z,100201.16
2023-04-19T07:44:14.976Z,100206.25
2023-04-19T07:46:18.785Z,100204.78
2023-04-19T07:48:21.711Z,100198.75
2023-04-19T07:50:27.152Z,100198.78
2023-04-19T07:52:29.925Z,100192.44
2023-04-19T07:54:32.626Z,100194.72
2023-04-19T07:56:35.297Z,100199.16
2023-04-19T07:58:42.270Z,100194.16
2023-04-19T08:00:46.124Z,100201.78
2023-04-19T08:02:49.916Z,100194.28
2023-04-19T08:04:53.650Z,100195.19
2023-04-19T08:06:56.777Z,100187.59
2023-04-19T08:08:59.766Z,100194.41
2023-04-19T08:11:02.718Z,100184.13
2023-04-19T08:13:06.746Z,100202.13
2023-04-19T08:15:32.854Z,100197.34
2023-04-19T08:19:38.087Z,100191.75
2023-04-19T08:21:41.778Z,100200.00
2023-04-19T08:23:48.348Z,100186.44
2023-04-19T08:25:52.237Z,100181.56
2023-04-19T08:27:55.721Z,100185.53
2023-04-19T08:29:58.869Z,100178.44
2023-04-19T08:32:02.852Z,100189.56
2023-04-19T08:34:05.674Z,100182.19
2023-04-19T08:36:08.988Z,100179.59
2023-04-19T08:38:12.303Z,100179.34
2023-04-19T08:40:17.518Z,100179.16
2023-04-19T08:42:33.233Z,100177.72
2023-04-19T08:44:49.240Z,100174.13
2023-04-19T08:47:02.573Z,100174.50
2023-04-19T08:49:06.293Z,100176.91
2023-04-19T08:51:10.182Z,100164.44
2023-04-19T08:55:19.129Z,100162.81
2023-04-19T08:57:22.970Z,100180.13
2023-04-19T08:59:25.776Z,100162.28
2023-04-19T09:01:34.759Z,100169.66
2023-04-19T09:04:00.387Z,100159.75
2023-04-19T09:06:08.545Z,100169.38
2023-04-19T09:08:30.250Z,100165.34
2023-04-19T09:10:33.395Z,100179.53
2023-04-19T09:12:37.739Z,100167.22
2023-04-19T09:14:59.775Z,100169.28
2023-04-19T09:17:17.034Z,100159.59
2023-04-19T09:19:24.933Z,100162.63
2023-04-19T09:21:30.834Z,100160.91
2023-04-19T09:23:33.479Z,100155.06
2023-04-19T09:25:52.891Z,100159.34
2023-04-19T09:28:15.157Z,100157.28
2023-04-19T09:30:31.422Z,100162.75
2023-04-19T09:32:48.001Z,100156.66
2023-04-19T09:34:55.636Z,100160.19
2023-04-19T09:37:11.046Z,100158.41
2023-04-19T09:39:33.019Z,100157.22
2023-04-19T09:41:39.025Z,100157.78
2023-04-19T09:45:48.010Z,100159.19
2023-04-19T09:48:05.966Z,100151.44
2023-04-19T09:52:16.104Z,100148.81
2023-04-19T09:54:21.153Z,100155.47
2023-04-19T09:56:23.778Z,100153.47
2023-04-19T09:58:34.343Z,100158.75
2023-04-19T10:00:50.023Z,100150.72
2023-04-19T10:02:58.723Z,100147.78
2023-04-19T10:05:19.658Z,100148.31
2023-04-19T10:07:30.498Z,100144.47
2023-04-19T10:09:42.636Z,100142.00
2023-04-19T10:12:02.097Z,100160.84
2023-04-19T10:14:15.451Z,100153.44
2023-04-19T10:16:20.172Z,100153.31
2023-04-19T10:18:23.811Z,100148.09
2023-04-19T10:20:53.126Z,100154.72
2023-04-19T10:22:56.394Z,100147.28
2023-04-19T10:25:17.120Z,100148.22
2023-04-19T10:27:25.860Z,100137.41
2023-04-19T10:30:10.908Z,100144.47
2023-04-19T10:32:13.954Z,100153.34
2023-04-19T10:34:42.675Z,100142.59
2023-04-19T10:36:45.295Z,100143.41
2023-04-19T10:38:49.885Z,100133.47
2023-04-19T10:40:52.966Z,100142.91
2023-04-19T10:43:11.089Z,100136.09
2023-04-19T10:45:33.596Z,100131.97
2023-04-19T10:47:44.628Z,100127.00
2023-04-19T10:49:47.296Z,100128.78
2023-04-19T10:51:54.982Z,100135.28
2023-04-19T10:54:08.049Z,100122.25
2023-04-19T10:56:11.162Z,100126.19
2023-04-19T10:58:13.758Z,100124.81
2023-04-19T11:00:22.348Z,100125.28
2023-04-19T11:02:25.307Z,100124.41
2023-04-19T11:04:31.310Z,100128.66
2023-04-19T11:06:54.361Z,100126.44
2023-04-19T11:08:57.993Z,100126.16
2023-04-19T11:11:00.621Z,100122.22
2023-04-19T11:13:03.266Z,100119.59
2023-04-19T11:15:06.948Z,100113.00
2023-04-19T11:17:18.981Z,100112.56
2023-04-19T11:19:21.720Z,100112.03
2023-04-19T11:21:24.618Z,100117.72
2023-04-19T11:23:27.736Z,100108.63
2023-04-19T11:25:31.839Z,100104.25
2023-04-19T11:27:34.999Z,100109.91
2023-04-19T11:29:37.584Z,100107.38
2023-04-19T11:31:40.472Z,100103.56
2023-04-19T11:33:44.280Z,100109.91
2023-04-19T11:35:46.857Z,100109.94
2023-04-19T11:37:49.709Z,100113.16
2023-04-19T11:39:52.249Z,100105.19
2023-04-19T11:41:54.848Z,100109.63
2023-04-19T11:43:57.427Z,100102.88
2023-04-19T11:46:10.699Z,100112.91
2023-04-19T11:48:16.468Z,100116.97
2023-04-19T11:50:31.395Z,100121.94
2023-04-19T11:52:35.789Z,100112.41
2023-04-19T11:54:40.188Z,100115.16
2023-04-19T11:57:09.456Z,100115.22
2023-04-19T11:59:12.094Z,100117.06
2023-04-19T12:01:16.723Z,100117.13
2023-04-19T12:03:27.119Z,100115.69
2023-04-19T12:05:30.652Z,100113.75
2023-04-19T12:07:33.475Z,100110.69
2023-04-19T12:09:37.142Z,100104.00
2023-04-19T12:11:50.346Z,100108.16
2023-04-19T12:14:13.318Z,100104.84
2023-04-19T12:16:28.278Z,100097.78
2023-04-19T12:18:49.093Z,100104.66
2023-04-19T12:20:53.574Z,100103.16
2023-04-19T12:22:56.406Z,100099.94
2023-04-19T12:24:59.381Z,100100.50
2023-04-19T12:27:03.035Z,100094.84
2023-04-19T12:29:06.468Z,100091.75
2023-04-19T12:31:09.380Z,100097.50
2023-04-19T12:33:12.482Z,100096.69
2023-04-19T12:35:15.095Z,100086.38
2023-04-19T12:37:17.666Z,100089.38
2023-04-19T12:39:20.326Z,100098.75
2023-04-19T12:41:22.848Z,100094.53
2023-04-19T12:43:25.585Z,100086.97
2023-04-19T12:45:28.221Z,100081.03
2023-04-19T12:47:30.899Z,100083.13
2023-04-19T12:49:34.316Z,100089.59
2023-04-19T12:51:36.861Z,100092.94
2023-04-19T12:53:42.031Z,100092.50
2023-04-19T12:55:47.642Z,100090.50
2023-04-19T12:57:50.243Z,100094.09
2023-04-19T12:59:53.013Z,100084.28
2023-04-19T13:01:56.760Z,100092.28
2023-04-19T13:03:59.949Z,100082.28
2023-04-19T13:06:03.770Z,100089.97
2023-04-19T13:08:06.789Z,100093.91
2023-04-19T13:10:09.781Z,100086.69
2023-04-19T13:12:12.651Z,100087.38
2023-04-19T13:14:15.341Z,100089.72
2023-04-19T13:16:18.422Z,100085.44
2023-04-19T13:18:22.456Z,100081.06
2023-04-19T13:20:25.069Z,100088.97
2023-04-19T13:22:27.672Z,100081.59
2023-04-19T13:24:30.519Z,100082.06
2023-04-19T13:26:34.510Z,100081.56
2023-04-19T13:28:37.297Z,100084.84
2023-04-19T13:30:39.968Z,100091.75
2023-04-19T13:32:42.574Z,100084.94
2023-04-19T13:34:45.162Z,100081.72
2023-04-19T13:36:47.859Z,100086.09
2023-04-19T13:38:50.403Z,100084.13
2023-04-19T13:40:53.104Z,100081.25
2023-04-19T13:42:56.958Z,100087.38
2023-04-19T13:44:59.506Z,100084.72
2023-04-19T13:47:02.245Z,100085.75
2023-04-19T13:49:04.927Z,100076.31
2023-04-19T13:51:08.539Z,100086.88
2023-04-19T13:53:11.164Z,100086.22
2023-04-19T13:55:13.804Z,100089.53
2023-04-19T13:57:16.383Z,100083.56
2023-04-19T13:59:19.349Z,100085.69
2023-04-19T14:01:22.220Z,100080.13
2023-04-19T14:03:25.323Z,100071.38
2023-04-19T14:05:27.975Z,100072.59
2023-04-19T14:07:30.861Z,100068.56
2023-04-19T14:09:33.438Z,100065.97
2023-04-19T14:11:37.908Z,100061.47
2023-04-19T14:13:41.208Z,100067.00
2023-04-19T14:15:43.776Z,100060.22
2023-04-19T14:17:47.301Z,100071.00
2023-04-19T14:19:50.081Z,100067.03
2023-04-19T14:21:52.671Z,100068.66
2023-04-19T14:23:55.669Z,100064.31
2023-04-19T14:25:58.346Z,100068.72
2023-04-19T14:28:00.938Z,100074.94
2023-04-19T14:30:03.865Z,100074.19
2023-04-19T14:32:24.043Z,100076.25
2023-04-19T14:34:28.552Z,100072.00
2023-04-19T14:36:31.479Z,100071.28
2023-04-19T14:38:35.351Z,100080.44
2023-04-19T14:40:37.926Z,100078.81
2023-04-19T14:42:40.709Z,100083.09
2023-04-19T14:44:43.980Z,100091.34
2023-04-19T14:46:46.639Z,100092.84
2023-04-19T14:48:49.177Z,100086.03
2023-04-19T14:50:52.005Z,100083.53
2023-04-19T14:52:54.879Z,100069.41
2023-04-19T14:54:58.122Z,100079.75
2023-04-19T14:57:01.621Z,100071.94
2023-04-19T14:59:08.085Z,100079.53
2023-04-19T15:01:14.424Z,100085.03
2023-04-19T15:03:17.802Z,100075.25
2023-04-19T15:05:23.468Z,100084.84
2023-04-19T15:07:26.540Z,100080.03
2023-04-19T15:09:29.330Z,100086.44
2023-04-19T15:11:32.004Z,100085.44
2023-04-19T15:13:35.653Z,100073.19
2023-04-19T15:15:38.362Z,100078.06
2023-04-19T15:17:41.360Z,100086.41
2023-04-19T15:19:47.201Z,100081.22
2023-04-19T15:21:49.967Z,100085.16
2023-04-19T15:23:52.702Z,100091.63
2023-04-19T15:25:56.376Z,100061.59
2023-04-19T15:27:58.973Z,100083.34
2023-04-19T15:30:01.635Z,100081.47
2023-04-19T15:32:08.318Z,100082.72
2023-04-19T15:34:10.923Z,100084.94
2023-04-19T15:36:13.680Z,100087.25
2023-04-19T15:38:16.297Z,100082.72
2023-04-19T15:40:19.070Z,100084.00
2023-04-19T15:42:22.211Z,100085.97
2023-04-19T15:44:24.955Z,100085.84
2023-04-19T15:46:27.510Z,100090.66
2023-04-19T15:48:30.223Z,100094.59
2023-04-19T15:50:36.230Z,100095.09
2023-04-19T15:52:38.808Z,100098.19
2023-04-19T15:54:41.355Z,100098.25
2023-04-19T15:56:44.025Z,100089.09
2023-04-19T15:58:46.708Z,100087.97
2023-04-19T16:00:49.364Z,100100.72
2023-04-19T16:02:52.300Z,100097.91
2023-04-19T16:04:55.163Z,100105.66
2023-04-19T16:06:57.988Z,100103.78
2023-04-19T16:09:00.848Z,100109.88
2023-04-19T16:11:06.155Z,100104.72
2023-04-19T16:13:08.951Z,100105.09
2023-04-19T16:15:12.071Z,100103.81
2023-04-19T16:17:14.622Z,100110.22
2023-04-19T16:19:17.406Z,100105.91
2023-04-19T16:21:20.207Z,100103.19
2023-04-19T16:23:24.342Z,100106.13
2023-04-19T16:25:27.040Z,100102.56
2023-04-19T16:27:29.661Z,100102.56
2023-04-19T16:29:32.233Z,100102.56
2023-04-19T16:31:35.195Z,100099.00
2023-04-19T16:33:37.811Z,100103.84
2023-04-19T16:35:40.405Z,100101.41
2023-04-19T16:37:43.146Z,100100.75
2023-04-19T16:39:46.311Z,100097.66
2023-04-19T16:41:48.984Z,100104.50
2023-04-19T16:43:51.501Z,100107.41
2023-04-19T16:45:54.100Z,100092.31
2023-04-19T16:47:56.773Z,100103.97
2023-04-19T16:50:00.588Z,100100.41
2023-04-19T16:52:03.280Z,100100.38
2023-04-19T16:54:05.883Z,100104.25
2023-04-19T16:56:08.490Z,100106.03
2023-04-19T16:58:11.256Z,100087.84
2023-04-19T17:00:14.271Z,100112.66
2023-04-19T17:02:17.308Z,100105.81
2023-04-19T17:04:20.412Z,100103.06
2023-04-19T17:06:23.107Z,100082.63
2023-04-19T17:08:26.648Z,100099.34
2023-04-19T17:10:29.330Z,100095.78
2023-04-19T17:12:32.155Z,100099.47
2023-04-19T17:14:35.555Z,100099.78
2023-04-19T17:16:38.446Z,100100.75
2023-04-19T17:18:41.105Z,100102.69
2023-04-19T17:20:44.020Z,100100.25
2023-04-19T17:22:46.753Z,100107.22
2023-04-19T17:24:49.788Z,100103.94
2023-04-19T17:26:52.399Z,100103.47
2023-04-19T17:28:55.094Z,100102.16
2023-04-19T17:30:57.694Z,100102.66
2023-04-19T17:33:00.407Z,100107.00
2023-04-19T17:35:04.596Z,100108.16
2023-04-19T17:37:07.536Z,100103.28
2023-04-19T17:39:10.172Z,100104.41
2023-04-19T17:41:16.483Z,100100.69
2023-04-19T17:43:21.025Z,100108.09
2023-04-19T17:45:25.232Z,100110.06
2023-04-19T17:47:27.941Z,100109.41
2023-04-19T17:49:30.640Z,100111.66
2023-04-19T17:51:33.376Z,100104.59
2023-04-19T17:53:36.040Z,100111.75
2023-04-19T17:55:38.627Z,100110.13
2023-04-19T17:57:41.412Z,100109.63
2023-04-19T17:59:44.397Z,100107.81
2023-04-19T18:01:47.147Z,100108.44
2023-04-19T18:03:50.873Z,100119.28
2023-04-19T18:05:54.898Z,100112.78
2023-04-19T18:07:57.950Z,100106.56
2023-04-19T18:10:00.645Z,100111.41
2023-04-19T18:12:07.784Z,100098.59
2023-04-19T18:14:20.584Z,100107.78
2023-04-19T18:16:26.301Z,100102.72
2023-04-19T18:18:29.149Z,100099.28
2023-04-19T18:20:31.777Z,100099.59
2023-04-19T18:22:34.492Z,100094.22
2023-04-19T18:24:38.348Z,100106.66
2023-04-19T18:26:43.285Z,100099.53
2023-04-19T18:28:46.236Z,100094.13
2023-04-19T18:30:48.882Z,100093.53
2023-04-19T18:32:51.745Z,100100.94
2023-04-19T18:34:54.768Z,100094.66
2023-04-19T18:37:02.071Z,100088.03
2023-04-19T18:39:05.004Z,100094.66
2023-04-19T18:41:07.725Z,100097.09
2023-04-19T18:43:10.702Z,100097.41
2023-04-19T18:45:13.513Z,100100.78
2023-04-19T18:47:16.354Z,100085.00
2023-04-19T18:49:19.395Z,100098.31
2023-04-19T18:51:22.188Z,100087.66
2023-04-19T18:53:29.517Z,100086.00
2023-04-19T18:55:32.279Z,100082.25
2023-04-19T18:57:35.267Z,100074.34
2023-04-19T18:59:38.522Z,100074.84
2023-04-19T19:01:42.030Z,100065.28
2023-04-19T19:05:54.723Z,100070.28
2023-04-19T19:07:57.935Z,100074.25
2023-04-19T19:10:03.668Z,100068.25
2023-04-19T19:12:13.957Z,100064.50
2023-04-19T19:14:18.301Z,100067.06
2023-04-19T19:16:20.989Z,100064.94
2023-04-19T19:18:23.818Z,100062.63
2023-04-19T19:20:26.742Z,100065.66
2023-04-19T19:22:29.437Z,100061.09
2023-04-19T19:24:32.201Z,100066.41
2023-04-19T19:26:34.949Z,100063.75
2023-04-19T19:28:37.607Z,100060.31
2023-04-19T19:30:42.958Z,100063.69
2023-04-19T19:32:45.814Z,100051.50
2023-04-19T19:36:55.453Z,100055.25
2023-04-19T19:38:58.033Z,100051.81
2023-04-19T19:41:47.218Z,100056.00
2023-04-19T19:43:23.363Z,100035.72
2023-04-19T19:45:31.978Z,100047.94
2023-04-19T19:47:35.735Z,100052.19
2023-04-19T19:51:57.501Z,100045.00
2023-04-19T19:54:08.780Z,100039.19
2023-04-19T19:56:19.061Z,100051.59
2023-04-19T19:58:46.255Z,100042.16
2023-04-19T20:00:50.392Z,100036.16
2023-04-19T20:02:56.662Z,100048.84
2023-04-19T20:04:59.878Z,100040.38
2023-04-19T20:09:08.225Z,100041.09
2023-04-19T20:11:11.135Z,100044.13
2023-04-19T20:13:13.682Z,100041.72
2023-04-19T20:15:16.444Z,100044.53
2023-04-19T20:17:19.047Z,100044.34
2023-04-19T20:19:21.742Z,100036.72
2023-04-19T20:21:24.364Z,100047.16
2023-04-19T20:23:27.209Z,100042.25
2023-04-19T20:25:32.588Z,100039.63
2023-04-19T20:27:35.286Z,100045.09
2023-04-19T20:29:38.350Z,100048.16
2023-04-19T20:31:42.613Z,100047.41
2023-04-19T20:33:47.975Z,100041.22
2023-04-19T20:35:50.687Z,100040.19
2023-04-19T20:37:54.703Z,100037.25
2023-04-19T20:39:58.702Z,100037.81
2023-04-19T20:42:01.586Z,100035.47
2023-04-19T20:44:05.170Z,100031.41
2023-04-19T20:46:08.552Z,100029.78
2023-04-19T20:48:11.253Z,100031.47
2023-04-19T20:50:13.903Z,100042.16
2023-04-19T20:52:16.479Z,100034.75
2023-04-19T20:54:20.092Z,100038.28
2023-04-19T20:56:23.225Z,100039.41
2023-04-19T20:58:25.973Z,100036.44
2023-04-19T21:00:28.862Z,100032.28
2023-04-19T21:02:31.800Z,100027.66
2023-04-19T21:04:34.984Z,100035.03
2023-04-19T21:06:37.712Z,100033.19
2023-04-19T21:08:40.377Z,100030.31
2023-04-19T21:10:43.067Z,100030.00
2023-04-19T21:12:45.919Z,100033.88
2023-04-19T21:14:50.040Z,100036.91
2023-04-19T21:16:52.628Z,100025.22
2023-04-19T21:18:55.368Z,100029.03
2023-04-19T21:20:58.582Z,100030.78
2023-04-19T21:23:02.144Z,100025.06
2023-04-19T21:25:05.537Z,100024.78
2023-04-19T21:27:08.115Z,100024.25
2023-04-19T21:29:11.701Z,100022.94
2023-04-19T21:31:14.351Z,100023.81
2023-04-19T21:33:18.276Z,100019.50
2023-04-19T21:35:21.053Z,100022.31
2023-04-19T21:37:23.747Z,100019.88
2023-04-19T21:39:26.380Z,100019.13
2023-04-19T21:41:29.065Z,100012.34
2023-04-19T21:43:31.771Z,100009.94
2023-04-19T21:45:34.467Z,100003.41
2023-04-19T21:47:37.264Z,100005.41
2023-04-19T21:49:41.097Z,100001.06
2023-04-19T21:51:43.733Z,99998.06
2023-04-19T21:53:46.335Z,99999.19
2023-04-19T21:55:52.878Z,99986.97
2023-04-19T21:57:55.531Z,99997.63
2023-04-19T21:59:58.398Z,99988.38
2023-04-19T22:02:01.257Z,99984.28
2023-04-19T22:04:04.762Z,99983.50
2023-04-19T22:06:08.641Z,99988.97
2023-04-19T22:08:12.170Z,99987.63
2023-04-19T22:10:14.827Z,99986.81
2023-04-19T22:12:17.470Z,99975.91
2023-04-19T22:14:20.213Z,99974.28
2023-04-19T22:16:22.871Z,99969.94
2023-04-19T22:18:25.568Z,99972.91
2023-04-19T22:20:28.180Z,99971.28
2023-04-19T22:22:30.850Z,99969.94
2023-04-19T22:26:36.422Z,99974.00
2023-04-19T22:28:39.120Z,99978.66
2023-04-19T22:30:41.937Z,99973.50
2023-04-19T22:32:44.695Z,99968.03
2023-04-19T22:34:47.250Z,99975.41
2023-04-19T22:36:49.995Z,99967.50
2023-04-19T22:38:52.621Z,99969.44
2023-04-19T22:40:55.208Z,99962.31
2023-04-19T22:42:57.830Z,99966.16
2023-04-19T22:45:00.463Z,99964.31
2023-04-19T22:47:03.660Z,99957.72
2023-04-19T22:49:06.450Z,99955.84
2023-04-19T22:51:09.641Z,99950.25
2023-04-19T22:53:13.238Z,99971.75
2023-04-19T22:55:15.926Z,99965.47
2023-04-19T22:57:21.447Z,99962.72
2023-04-19T22:59:24.038Z,99956.72
2023-04-19T23:01:26.786Z,99961.91
2023-04-19T23:03:29.487Z,99959.19
2023-04-19T23:05:33.681Z,99952.91
2023-04-19T23:07:36.406Z,99951.25
2023-04-19T23:09:39.492Z,99954.81
2023-04-19T23:11:42.623Z,99958.13
2023-04-19T23:13:47.531Z,99946.66
2023-04-19T23:15:50.460Z,99943.19
2023-04-19T23:17:53.107Z,99946.19
2023-04-19T23:19:55.783Z,99940.25
2023-04-19T23:21:58.402Z,99954.19
2023-04-19T23:24:01.121Z,99942.19
2023-04-19T23:26:03.873Z,99937.88
2023-04-19T23:28:06.661Z,99943.13
2023-04-19T23:30:09.624Z,99946.69
2023-04-19T23:32:12.298Z,99944.53
2023-04-19T23:34:15.509Z,99949.19
2023-04-19T23:36:18.246Z,99941.56
2023-04-19T23:38:21.046Z,99941.34
2023-04-19T23:40:23.695Z,99941.94
2023-04-19T23:42:26.318Z,99940.56
2023-04-19T23:44:30.106Z,99941.44
2023-04-19T23:46:32.825Z,99938.75
2023-04-19T23:48:35.462Z,99944.53
2023-04-19T23:50:38.011Z,99941.00
2023-04-19T23:52:40.956Z,99945.94
2023-04-19T23:54:43.643Z,99936.47
2023-04-19T23:56:46.975Z,99938.66
2023-04-19T23:58:49.597Z,99936.00
